createdAt,value
2023-05-09T00:01:56.521Z,9.19
2023-05-09T00:04:24.318Z,9.15
2023-05-09T00:06:52.279Z,9.11
2023-05-09T00:09:20.060Z,9.08
2023-05-09T00:11:47.780Z,9.05
2023-05-09T00:14:15.736Z,9.02
2023-05-09T00:16:44.415Z,9.01
2023-05-09T00:19:13.576Z,8.96
2023-05-09T00:21:41.299Z,8.92
2023-05-09T00:24:09.121Z,8.89
2023-05-09T00:26:36.815Z,8.84
2023-05-09T00:29:04.582Z,8.80
2023-05-09T00:31:32.327Z,8.78
2023-05-09T00:34:00.043Z,8.77
2023-05-09T00:36:29.106Z,8.74
2023-05-09T00:38:57.202Z,8.69
2023-05-09T00:41:24.952Z,8.65
2023-05-09T00:43:52.767Z,8.61
2023-05-09T00:46:20.812Z,8.59
2023-05-09T00:48:48.677Z,8.56
2023-05-09T00:51:16.933Z,8.52
2023-05-09T00:53:46.144Z,8.49
2023-05-09T00:56:13.886Z,8.45
2023-05-09T00:58:42.210Z,8.41
2023-05-09T01:01:10.176Z,8.38
2023-05-09T01:03:41.250Z,8.36
2023-05-09T01:06:15.976Z,8.32
2023-05-09T01:38:13.660Z,7.92
2023-05-09T01:40:43.590Z,7.90
2023-05-09T01:43:15.124Z,7.85
2023-05-09T01:45:44.116Z,7.82
2023-05-09T01:48:13.802Z,7.80
2023-05-09T01:50:43.295Z,7.77
2023-05-09T01:53:13.406Z,7.73
2023-05-09T01:55:42.519Z,7.71
2023-05-09T01:58:11.500Z,7.67
2023-05-09T02:00:39.768Z,7.65
2023-05-09T02:03:08.080Z,7.63
2023-05-09T02:05:37.346Z,7.59
2023-05-09T02:08:05.359Z,7.56
2023-05-09T02:10:36.557Z,7.52
2023-05-09T02:13:06.046Z,7.50
2023-05-09T02:15:34.016Z,7.48
2023-05-09T02:18:02.209Z,7.45
2023-05-09T02:20:30.058Z,7.41
2023-05-09T02:22:58.200Z,7.39
2023-05-09T02:25:26.346Z,7.37
2023-05-09T02:27:58.000Z,7.34
2023-05-09T02:30:27.920Z,7.31
2023-05-09T02:33:00.444Z,7.27
2023-05-09T02:35:29.621Z,7.26
2023-05-09T02:37:59.105Z,7.23
2023-05-09T02:40:34.217Z,7.21
2023-05-09T02:43:06.965Z,7.18
2023-05-09T02:45:42.750Z,7.17
2023-05-09T02:48:13.692Z,7.14
2023-05-09T02:50:43.723Z,7.11
2023-05-09T02:53:20.483Z,7.08
2023-05-09T02:55:51.476Z,7.05
2023-05-09T02:58:30.459Z,7.03
2023-05-09T03:01:10.233Z,7.01
2023-05-09T03:03:44.778Z,6.98
2023-05-09T03:06:23.769Z,6.95
2023-05-09T03:09:08.118Z,6.93
2023-05-09T03:11:47.151Z,6.91
2023-05-09T03:14:31.761Z,6.88
2023-05-09T03:17:03.212Z,6.86
2023-05-09T03:19:35.627Z,6.85
2023-05-09T03:22:03.376Z,6.84
2023-05-09T03:24:35.750Z,6.82
2023-05-09T03:27:03.752Z,6.81
2023-05-09T03:29:33.489Z,6.82
2023-05-09T03:32:02.076Z,6.81
2023-05-09T03:34:29.885Z,6.81
2023-05-09T03:36:59.131Z,6.79
2023-05-09T03:39:27.062Z,6.78
2023-05-09T03:41:57.601Z,6.76
2023-05-09T03:44:25.581Z,6.74
2023-05-09T03:46:55.476Z,6.74
2023-05-09T03:49:23.318Z,6.72
2023-05-09T03:51:54.187Z,6.71
2023-05-09T03:54:22.147Z,6.71
2023-05-09T03:56:50.506Z,6.69
2023-05-09T03:59:18.362Z,6.68
2023-05-09T04:01:46.533Z,6.66
2023-05-09T04:04:16.128Z,6.64
2023-05-09T04:06:44.650Z,6.62
2023-05-09T04:09:13.138Z,6.61
2023-05-09T04:11:42.663Z,6.61
2023-05-09T04:14:12.863Z,6.60
2023-05-09T04:16:40.870Z,6.62
2023-05-09T04:19:08.705Z,6.61
2023-05-09T04:21:38.077Z,6.61
2023-05-09T04:24:07.280Z,6.64
2023-05-09T04:26:42.735Z,6.66
2023-05-09T04:29:14.008Z,6.67
2023-05-09T04:31:42.503Z,6.67
2023-05-09T04:34:13.350Z,6.69
2023-05-09T04:36:42.452Z,6.68
2023-05-09T04:39:10.755Z,6.71
2023-05-09T04:41:48.237Z,6.72
2023-05-09T04:44:22.153Z,6.76
2023-05-09T04:47:02.303Z,6.77
2023-05-09T04:49:39.453Z,6.80
2023-05-09T04:52:19.581Z,6.85
2023-05-09T04:54:51.266Z,6.89
2023-05-09T04:57:36.590Z,6.92
2023-05-09T05:00:13.023Z,6.96
2023-05-09T05:02:49.171Z,7.01
2023-05-09T05:05:17.790Z,7.05
2023-05-09T05:07:49.191Z,7.09
2023-05-09T05:10:22.031Z,7.16
2023-05-09T05:12:55.072Z,7.21
2023-05-09T05:15:24.292Z,7.27
2023-05-09T05:17:52.158Z,7.33
2023-05-09T05:20:23.605Z,7.41
2023-05-09T05:22:54.910Z,7.48
2023-05-09T05:25:24.167Z,7.56
2023-05-09T05:27:53.919Z,7.64
2023-05-09T05:30:22.163Z,7.72
2023-05-09T05:32:50.523Z,7.79
2023-05-09T05:35:23.237Z,7.85
2023-05-09T05:37:53.096Z,7.92
2023-05-09T05:40:22.270Z,7.98
2023-05-09T05:42:51.689Z,8.04
2023-05-09T05:45:19.533Z,8.11
2023-05-09T05:47:51.254Z,8.17
2023-05-09T05:50:19.565Z,8.23
2023-05-09T05:52:47.807Z,8.30
2023-05-09T05:55:18.493Z,8.38
2023-05-09T05:57:47.045Z,8.45
2023-05-09T06:00:16.875Z,8.52
2023-05-09T06:02:48.698Z,8.59
2023-05-09T06:05:24.183Z,8.67
2023-05-09T06:07:52.935Z,8.73
2023-05-09T06:10:22.181Z,8.81
2023-05-09T06:12:49.959Z,8.87
2023-05-09T06:15:18.979Z,8.94
2023-05-09T06:17:49.842Z,9.00
2023-05-09T06:20:17.780Z,9.08
2023-05-09T06:22:45.771Z,9.15
2023-05-09T06:25:13.641Z,9.19
2023-05-09T06:27:43.637Z,9.27
2023-05-09T06:30:24.494Z,9.34
2023-05-09T06:32:53.807Z,9.42
2023-05-09T06:35:21.883Z,9.50
2023-05-09T06:37:49.718Z,9.57
2023-05-09T06:40:17.592Z,9.62
2023-05-09T06:42:46.976Z,9.69
2023-05-09T06:45:15.991Z,9.74
2023-05-09T06:47:43.995Z,9.85
2023-05-09T06:50:12.131Z,9.93
2023-05-09T06:52:39.939Z,10.03
2023-05-09T06:55:09.328Z,10.10
2023-05-09T06:57:37.296Z,10.20
2023-05-09T07:00:08.262Z,10.29
2023-05-09T07:02:36.051Z,10.40
2023-05-09T07:05:05.191Z,10.50
2023-05-09T07:07:33.447Z,10.62
2023-05-09T07:10:11.303Z,10.70
2023-05-09T07:12:40.332Z,10.82
2023-05-09T07:15:10.965Z,10.91
2023-05-09T07:17:39.016Z,10.98
2023-05-09T07:20:08.156Z,11.08
2023-05-09T07:22:37.470Z,11.17
2023-05-09T07:25:08.220Z,11.27
2023-05-09T07:27:36.110Z,11.37
2023-05-09T07:30:04.316Z,11.48
2023-05-09T07:32:33.726Z,11.60
2023-05-09T07:35:01.520Z,11.73
2023-05-09T07:37:29.253Z,11.90
2023-05-09T07:39:57.036Z,12.02
2023-05-09T07:42:24.773Z,12.19
2023-05-09T07:44:52.485Z,12.33
2023-05-09T07:47:20.200Z,12.47
2023-05-09T07:49:49.263Z,12.60
2023-05-09T07:52:17.720Z,12.71
2023-05-09T07:54:45.605Z,12.82
2023-05-09T07:57:13.299Z,12.92
2023-05-09T07:59:46.853Z,13.04
2023-05-09T08:02:14.728Z,13.15
2023-05-09T08:04:42.544Z,13.23
2023-05-09T08:07:11.951Z,13.34
2023-05-09T08:09:39.957Z,13.46
2023-05-09T08:12:08.331Z,13.55
2023-05-09T08:14:36.267Z,13.65
2023-05-09T08:17:04.015Z,13.79
2023-05-09T08:19:31.793Z,13.93
2023-05-09T08:22:01.986Z,14.06
2023-05-09T08:24:31.981Z,14.20
2023-05-09T08:27:00.047Z,14.34
2023-05-09T08:29:28.953Z,14.50
2023-05-09T08:31:56.761Z,14.63
2023-05-09T08:34:24.509Z,14.75
2023-05-09T08:36:55.022Z,14.87
2023-05-09T08:39:23.638Z,15.00
2023-05-09T08:41:54.089Z,15.11
2023-05-09T08:44:23.477Z,15.27
2023-05-09T08:46:53.632Z,15.40
2023-05-09T08:49:21.998Z,15.50
2023-05-09T08:51:50.635Z,15.63
2023-05-09T08:54:19.618Z,15.70
2023-05-09T08:56:48.775Z,15.81
2023-05-09T08:59:19.109Z,15.93
2023-05-09T09:01:47.127Z,16.05
2023-05-09T09:04:14.911Z,16.22
2023-05-09T09:06:43.739Z,16.39
2023-05-09T09:09:13.954Z,16.57
2023-05-09T09:11:43.145Z,16.74
2023-05-09T09:14:13.959Z,16.89
2023-05-09T09:16:45.937Z,17.01
2023-05-09T09:19:17.588Z,17.18
2023-05-09T09:21:46.851Z,17.38
2023-05-09T09:24:15.519Z,17.56
2023-05-09T09:26:47.935Z,17.71
2023-05-09T09:29:16.188Z,17.90
2023-05-09T09:31:47.063Z,18.12
2023-05-09T09:34:23.149Z,18.28
2023-05-09T09:36:51.319Z,18.48
2023-05-09T09:39:19.391Z,18.73
2023-05-09T09:41:47.125Z,18.90
2023-05-09T09:44:16.414Z,19.14
2023-05-09T09:46:47.379Z,19.35
2023-05-09T09:49:16.718Z,19.48
2023-05-09T09:51:45.282Z,19.61
2023-05-09T09:54:13.937Z,19.75
2023-05-09T09:56:43.933Z,19.87
2023-05-09T09:59:13.449Z,19.98
2023-05-09T10:01:59.862Z,20.01
2023-05-09T10:04:31.092Z,20.06
2023-05-09T10:07:00.375Z,20.05
2023-05-09T10:09:29.278Z,20.14
2023-05-09T10:11:57.970Z,20.20
2023-05-09T10:14:27.466Z,20.33
2023-05-09T10:16:57.418Z,20.50
2023-05-09T10:19:29.638Z,20.65
2023-05-09T10:21:58.543Z,20.81
2023-05-09T10:24:30.878Z,20.85
2023-05-09T10:27:05.201Z,21.01
2023-05-09T10:29:36.941Z,21.22
2023-05-09T10:32:13.273Z,21.42
2023-05-09T10:34:48.758Z,21.58
2023-05-09T10:37:25.602Z,21.76
2023-05-09T10:39:55.634Z,21.82
2023-05-09T10:42:33.237Z,21.92
2023-05-09T10:45:04.535Z,22.04
2023-05-09T10:47:36.141Z,22.17
2023-05-09T10:50:13.209Z,22.38
2023-05-09T10:53:14.347Z,22.50
2023-05-09T10:55:59.145Z,22.59
2023-05-09T10:58:36.597Z,22.74
2023-05-09T11:01:05.661Z,22.80
2023-05-09T11:03:55.378Z,22.85
2023-05-09T11:06:43.882Z,22.94
2023-05-09T11:09:28.359Z,23.07
2023-05-09T11:11:58.013Z,23.12
2023-05-09T11:14:39.551Z,23.11
2023-05-09T11:17:08.325Z,23.14
2023-05-09T11:19:57.669Z,23.26
2023-05-09T11:22:28.236Z,23.33
2023-05-09T11:25:04.709Z,23.42
2023-05-09T11:27:40.648Z,23.52
2023-05-09T11:30:10.325Z,23.60
2023-05-09T11:32:51.286Z,23.62
2023-05-09T11:35:21.313Z,23.78
2023-05-09T11:37:52.458Z,23.87
2023-05-09T11:40:21.735Z,23.95
2023-05-09T11:42:55.503Z,23.96
2023-05-09T11:45:27.834Z,23.98
2023-05-09T11:47:56.982Z,24.11
2023-05-09T11:50:25.582Z,24.22
2023-05-09T11:52:55.281Z,24.26
2023-05-09T11:55:25.237Z,24.23
2023-05-09T11:57:55.118Z,24.17
2023-05-09T12:00:24.554Z,24.17
2023-05-09T12:02:53.400Z,24.28
2023-05-09T12:05:23.442Z,24.42
2023-05-09T12:07:52.555Z,24.48
2023-05-09T12:10:23.889Z,24.52
2023-05-09T12:12:53.191Z,24.62
2023-05-09T12:15:21.834Z,24.64
2023-05-09T12:18:02.469Z,24.60
2023-05-09T12:20:41.237Z,24.59
2023-05-09T12:23:10.594Z,24.54
2023-05-09T12:25:39.784Z,24.62
2023-05-09T12:28:07.638Z,24.74
2023-05-09T12:30:36.025Z,24.80
2023-05-09T12:33:04.153Z,24.77
2023-05-09T12:35:32.245Z,24.74
2023-05-09T12:38:00.265Z,24.71
2023-05-09T12:40:28.250Z,24.70
2023-05-09T12:43:01.018Z,24.67
2023-05-09T12:45:28.838Z,24.67
2023-05-09T12:47:58.233Z,24.68
2023-05-09T12:50:34.762Z,24.77
2023-05-09T12:53:04.261Z,24.85
2023-05-09T12:55:32.960Z,24.92
2023-05-09T12:58:03.960Z,24.82
2023-05-09T13:00:43.872Z,24.87
2023-05-09T13:03:22.333Z,24.94
2023-05-09T13:05:58.066Z,24.99
2023-05-09T13:08:25.986Z,24.96
2023-05-09T13:11:00.731Z,24.96
2023-05-09T13:13:37.342Z,24.91
2023-05-09T13:16:06.966Z,24.97
2023-05-09T13:18:35.892Z,25.06
2023-05-09T13:21:03.617Z,25.08
2023-05-09T13:23:31.301Z,25.18
2023-05-09T13:25:59.101Z,25.15
2023-05-09T13:28:26.871Z,25.09
2023-05-09T13:30:55.943Z,25.21
2023-05-09T13:33:26.249Z,25.32
2023-05-09T13:35:54.543Z,25.40
2023-05-09T13:38:22.348Z,25.36
2023-05-09T13:40:50.076Z,25.30
2023-05-09T13:43:17.929Z,25.25
2023-05-09T13:45:45.781Z,25.20
2023-05-09T13:48:14.963Z,25.09
2023-05-09T13:50:42.753Z,24.90
2023-05-09T13:53:10.626Z,24.95
2023-05-09T13:55:38.412Z,25.01
2023-05-09T13:58:06.548Z,25.01
2023-05-09T14:00:34.575Z,24.93
2023-05-09T14:03:02.833Z,24.85
2023-05-09T14:05:32.400Z,24.86
2023-05-09T14:08:01.633Z,24.96
2023-05-09T14:10:29.503Z,25.00
2023-05-09T14:12:57.798Z,24.96
2023-05-09T14:15:25.543Z,25.03
2023-05-09T14:17:53.369Z,25.09
2023-05-09T14:20:21.775Z,25.05
2023-05-09T14:22:50.873Z,25.11
2023-05-09T14:25:18.573Z,25.14
2023-05-09T14:27:46.324Z,25.08
2023-05-09T14:30:15.742Z,24.95
2023-05-09T14:32:43.635Z,24.86
2023-05-09T14:35:11.433Z,24.80
2023-05-09T14:37:39.664Z,24.72
2023-05-09T14:40:10.426Z,24.71
2023-05-09T14:42:38.147Z,24.71
2023-05-09T14:45:07.421Z,24.69
2023-05-09T14:47:35.240Z,24.61
2023-05-09T14:50:03.189Z,24.46
2023-05-09T14:52:31.035Z,24.31
2023-05-09T14:54:59.779Z,24.23
2023-05-09T14:57:28.939Z,24.18
2023-05-09T15:00:00.955Z,24.12
2023-05-09T15:02:34.136Z,24.05
2023-05-09T15:05:01.886Z,23.83
2023-05-09T15:07:29.841Z,23.53
2023-05-09T15:09:57.605Z,23.43
2023-05-09T15:12:25.372Z,23.39
2023-05-09T15:14:55.505Z,23.37
2023-05-09T15:17:23.568Z,23.37
2023-05-09T15:19:51.561Z,23.37
2023-05-09T15:22:19.312Z,23.32
2023-05-09T15:24:47.162Z,23.24
2023-05-09T15:27:14.927Z,23.21
2023-05-09T15:29:42.662Z,23.14
2023-05-09T15:32:11.789Z,23.06
2023-05-09T15:34:39.514Z,22.94
2023-05-09T15:37:07.635Z,22.83
2023-05-09T15:39:36.485Z,22.74
2023-05-09T15:42:07.096Z,22.65
2023-05-09T15:44:34.829Z,22.54
2023-05-09T15:47:02.645Z,22.40
2023-05-09T15:49:31.762Z,22.32
2023-05-09T15:51:59.572Z,22.23
2023-05-09T15:54:27.663Z,22.11
2023-05-09T15:56:55.985Z,21.99
2023-05-09T15:59:23.748Z,21.83
2023-05-09T16:01:51.529Z,21.69
2023-05-09T16:04:19.417Z,21.50
2023-05-09T16:06:48.941Z,21.38
2023-05-09T16:09:16.872Z,21.27
2023-05-09T16:11:44.755Z,21.19
2023-05-09T16:14:13.060Z,21.05
2023-05-09T16:16:42.772Z,20.91
2023-05-09T16:19:10.708Z,20.83
2023-05-09T16:21:39.272Z,20.75
2023-05-09T16:24:09.159Z,20.70
2023-05-09T16:26:36.895Z,20.62
2023-05-09T16:29:04.655Z,20.52
2023-05-09T16:31:35.549Z,20.45
2023-05-09T16:34:04.014Z,20.32
2023-05-09T16:36:33.421Z,20.22
2023-05-09T16:39:01.237Z,20.11
2023-05-09T16:41:30.324Z,20.02
2023-05-09T16:43:58.773Z,19.91
2023-05-09T16:46:26.817Z,19.82
2023-05-09T16:48:55.103Z,19.73
2023-05-09T16:51:23.169Z,19.62
2023-05-09T16:53:50.989Z,19.55
2023-05-09T16:56:18.872Z,19.47
2023-05-09T16:58:49.346Z,19.40
2023-05-09T17:01:17.164Z,19.34
2023-05-09T17:03:45.400Z,19.26
2023-05-09T17:06:13.165Z,19.20
2023-05-09T17:08:40.930Z,19.14
2023-05-09T17:11:09.718Z,19.08
2023-05-09T17:13:37.713Z,19.00
2023-05-09T17:16:07.187Z,18.95
2023-05-09T17:18:38.809Z,18.89
2023-05-09T17:21:07.654Z,18.84
2023-05-09T17:23:38.360Z,18.79
2023-05-09T17:26:06.749Z,18.75
2023-05-09T17:28:36.381Z,18.70
2023-05-09T17:31:04.332Z,18.65
2023-05-09T17:33:34.067Z,18.62
2023-05-09T17:36:01.849Z,18.59
2023-05-09T17:38:30.149Z,18.53
2023-05-09T17:40:58.406Z,18.50
2023-05-09T17:43:28.335Z,18.44
2023-05-09T17:45:56.153Z,18.39
2023-05-09T17:48:24.427Z,18.35
2023-05-09T17:50:54.359Z,18.27
2023-05-09T17:53:22.207Z,18.23
2023-05-09T17:55:49.896Z,18.16
2023-05-09T17:58:17.737Z,18.11
2023-05-09T18:00:45.639Z,18.05
2023-05-09T18:03:13.595Z,17.97
2023-05-09T18:05:41.736Z,17.89
2023-05-09T18:08:10.921Z,17.83
2023-05-09T18:10:38.747Z,17.74
2023-05-09T18:13:06.742Z,17.67
2023-05-09T18:15:38.134Z,17.56
2023-05-09T18:18:06.636Z,17.50
2023-05-09T18:20:34.667Z,17.41
2023-05-09T18:23:02.473Z,17.33
2023-05-09T18:25:31.669Z,17.25
2023-05-09T18:27:59.460Z,17.17
2023-05-09T18:30:27.527Z,17.10
2023-05-09T18:33:00.195Z,17.03
2023-05-09T18:35:28.162Z,16.94
2023-05-09T18:37:55.954Z,16.88
2023-05-09T18:40:23.810Z,16.78
2023-05-09T18:42:52.905Z,16.71
2023-05-09T18:45:20.665Z,16.62
2023-05-09T18:47:48.541Z,16.56
2023-05-09T18:50:18.484Z,16.49
2023-05-09T18:52:46.488Z,16.41
2023-05-09T18:55:14.929Z,16.33
2023-05-09T18:57:42.669Z,16.27
2023-05-09T19:00:13.743Z,16.20
2023-05-09T19:02:41.800Z,16.14
2023-05-09T19:05:10.888Z,16.05
2023-05-09T19:07:39.695Z,15.98
2023-05-09T19:10:09.348Z,15.93
2023-05-09T19:12:37.494Z,15.86
2023-05-09T19:15:06.552Z,15.79
2023-05-09T19:17:35.782Z,15.71
2023-05-09T19:20:04.019Z,15.64
2023-05-09T19:22:32.180Z,15.57
2023-05-09T19:25:00.103Z,15.48
2023-05-09T19:27:27.916Z,15.42
2023-05-09T19:29:55.619Z,15.37
2023-05-09T19:32:23.630Z,15.29
2023-05-09T19:34:52.799Z,15.24
2023-05-09T19:37:20.562Z,15.17
2023-05-09T19:39:48.289Z,15.10
2023-05-09T19:42:16.111Z,15.03
2023-05-09T19:44:43.836Z,14.96
2023-05-09T19:47:11.740Z,14.90
2023-05-09T19:49:40.328Z,14.85
2023-05-09T19:52:09.448Z,14.79
2023-05-09T19:54:37.244Z,14.73
2023-05-09T19:57:06.590Z,14.67
2023-05-09T19:59:34.354Z,14.63
2023-05-09T20:02:02.669Z,14.56
2023-05-09T20:04:35.633Z,14.51
2023-05-09T20:07:03.725Z,14.45
2023-05-09T20:09:33.224Z,14.40
2023-05-09T20:12:03.540Z,14.34
2023-05-09T20:14:31.938Z,14.30
2023-05-09T20:16:59.720Z,14.25
2023-05-09T20:19:27.836Z,14.19
2023-05-09T20:21:55.517Z,14.15
2023-05-09T20:24:23.403Z,14.12
2023-05-09T20:26:52.533Z,14.09
2023-05-09T20:29:20.290Z,14.05
2023-05-09T20:31:48.311Z,14.02
2023-05-09T20:34:18.051Z,14.02
2023-05-09T20:36:49.233Z,13.98
2023-05-09T20:39:17.768Z,13.95
2023-05-09T20:41:45.697Z,13.93
2023-05-09T20:44:15.647Z,13.92
2023-05-09T20:46:43.888Z,13.90
2023-05-09T20:49:11.873Z,13.89
2023-05-09T20:51:39.960Z,13.89
2023-05-09T20:54:07.778Z,13.89
2023-05-09T20:56:35.813Z,13.86
2023-05-09T20:59:04.561Z,13.84
2023-05-09T21:01:36.588Z,13.80
2023-05-09T21:04:05.806Z,13.77
2023-05-09T21:06:33.757Z,13.73
2023-05-09T21:09:01.507Z,13.70
2023-05-09T21:11:29.218Z,13.68
2023-05-09T21:13:56.891Z,13.64
2023-05-09T21:16:24.650Z,13.61
2023-05-09T21:18:53.964Z,13.59
2023-05-09T21:21:21.687Z,13.56
2023-05-09T21:23:49.891Z,13.54
2023-05-09T21:26:17.914Z,13.51
2023-05-09T21:28:45.688Z,13.47
2023-05-09T21:31:13.459Z,13.43
2023-05-09T21:33:41.173Z,13.41
2023-05-09T21:36:11.070Z,13.37
2023-05-09T21:38:38.848Z,13.36
2023-05-09T21:41:06.652Z,13.33
2023-05-09T21:43:34.501Z,13.31
2023-05-09T21:46:02.237Z,13.27
2023-05-09T21:48:30.107Z,13.25
2023-05-09T21:50:57.877Z,13.21
2023-05-09T21:53:26.982Z,13.18
2023-05-09T21:55:54.696Z,13.17
2023-05-09T21:58:22.412Z,13.14
2023-05-09T22:00:50.154Z,13.10
2023-05-09T22:03:17.955Z,13.08
2023-05-09T22:05:45.921Z,13.06
2023-05-09T22:08:13.860Z,13.06
2023-05-09T22:10:42.945Z,13.02
2023-05-09T22:13:10.681Z,13.01
2023-05-09T22:15:38.473Z,12.95
2023-05-09T22:18:06.402Z,12.93
2023-05-09T22:20:34.870Z,12.88
2023-05-09T22:23:02.706Z,12.85
2023-05-09T22:25:30.570Z,12.83
2023-05-09T22:27:59.616Z,12.79
2023-05-09T22:30:27.520Z,12.76
2023-05-09T22:32:55.335Z,12.73
2023-05-09T22:35:23.277Z,12.71
2023-05-09T22:37:50.985Z,12.69
2023-05-09T22:40:18.994Z,12.67
2023-05-09T22:42:46.709Z,12.64
2023-05-09T22:45:15.812Z,12.62
2023-05-09T22:47:43.554Z,12.58
2023-05-09T22:50:11.737Z,12.58
2023-05-09T22:52:39.677Z,12.54
2023-05-09T22:55:08.467Z,12.51
2023-05-09T22:57:36.895Z,12.48
2023-05-09T23:00:06.248Z,12.45
2023-05-09T23:02:35.542Z,12.44
2023-05-09T23:05:03.477Z,12.42
2023-05-09T23:07:31.328Z,12.40
2023-05-09T23:09:59.252Z,12.37
2023-05-09T23:12:27.142Z,12.35
2023-05-09T23:14:54.853Z,12.33
2023-05-09T23:17:23.034Z,12.30
2023-05-09T23:19:52.134Z,12.28
2023-05-09T23:22:19.874Z,12.26
2023-05-09T23:24:47.707Z,12.24
2023-05-09T23:27:15.505Z,12.22
2023-05-09T23:29:43.468Z,12.19
2023-05-09T23:32:11.214Z,12.16
2023-05-09T23:34:38.977Z,12.12
2023-05-09T23:37:08.732Z,12.10
2023-05-09T23:39:36.555Z,12.07
2023-05-09T23:42:04.886Z,12.05
2023-05-09T23:44:33.214Z,12.01
2023-05-09T23:47:01.904Z,11.97
2023-05-09T23:49:29.831Z,11.94
2023-05-09T23:51:57.864Z,11.92
2023-05-09T23:54:27.452Z,11.88
2023-05-09T23:56:56.361Z,11.84
2023-05-09T23:59:24.174Z,11.81
